sensor_id;sensor_type;location;lat;lon;timestamp;P1;durP1;ratioP1;P2;durP2;ratioP2
67108;SDS011;54027;50.786;7.058;2023-03-01T00:01:33;20.60;;;10.02;;
67108;SDS011;54027;50.786;7.058;2023-03-01T00:03:58;22.20;;;10.25;;
67108;SDS011;54027;50.786;7.058;2023-03-01T00:06:25;17.38;;;10.07;;
67108;SDS011;54027;50.786;7.058;2023-03-01T00:08:51;18.17;;;9.77;;
67108;SDS011;54027;50.786;7.058;2023-03-01T00:11:18;15.98;;;9.90;;
67108;SDS011;54027;50.786;7.058;2023-03-01T00:13:49;15.77;;;10.23;;
67108;SDS011;54027;50.786;7.058;2023-03-01T00:16:17;20.48;;;10.68;;
67108;SDS011;54027;50.786;7.058;2023-03-01T00:18:44;18.65;;;10.50;;
67108;SDS011;54027;50.786;7.058;2023-03-01T00:21:10;20.27;;;11.02;;
67108;SDS011;54027;50.786;7.058;2023-03-01T00:23:36;22.38;;;10.98;;
67108;SDS011;54027;50.786;7.058;2023-03-01T00:26:05;18.40;;;11.50;;
67108;SDS011;54027;50.786;7.058;2023-03-01T00:28:32;18.83;;;10.00;;
67108;SDS011;54027;50.786;7.058;2023-03-01T00:31:02;20.65;;;11.93;;
67108;SDS011;54027;50.786;7.058;2023-03-01T00:33:31;17.23;;;11.13;;
67108;SDS011;54027;50.786;7.058;2023-03-01T00:35:57;21.65;;;11.10;;
67108;SDS011;54027;50.786;7.058;2023-03-01T00:38:23;19.23;;;10.13;;
67108;SDS011;54027;50.786;7.058;2023-03-01T00:40:49;17.17;;;10.88;;
67108;SDS011;54027;50.786;7.058;2023-03-01T00:43:14;16.23;;;9.57;;
67108;SDS011;54027;50.786;7.058;2023-03-01T00:45:40;16.65;;;10.95;;
67108;SDS011;54027;50.786;7.058;2023-03-01T00:48:05;19.83;;;10.63;;
67108;SDS011;54027;50.786;7.058;2023-03-01T00:50:30;17.85;;;11.05;;
67108;SDS011;54027;50.786;7.058;2023-03-01T00:52:56;19.27;;;10.70;;
67108;SDS011;54027;50.786;7.058;2023-03-01T00:55:22;21.70;;;11.15;;
67108;SDS011;54027;50.786;7.058;2023-03-01T00:57:47;18.58;;;11.00;;
67108;SDS011;54027;50.786;7.058;2023-03-01T01:00:13;16.90;;;8.70;;
67108;SDS011;54027;50.786;7.058;2023-03-01T01:02:38;20.65;;;10.68;;
67108;SDS011;54027;50.786;7.058;2023-03-01T01:05:04;15.75;;;9.57;;
67108;SDS011;54027;50.786;7.058;2023-03-01T01:07:29;18.48;;;10.77;;
67108;SDS011;54027;50.786;7.058;2023-03-01T01:09:55;20.92;;;11.23;;
67108;SDS011;54027;50.786;7.058;2023-03-01T01:12:21;21.90;;;11.52;;
67108;SDS011;54027;50.786;7.058;2023-03-01T01:14:46;21.48;;;10.75;;
67108;SDS011;54027;50.786;7.058;2023-03-01T01:17:11;21.80;;;11.18;;
67108;SDS011;54027;50.786;7.058;2023-03-01T01:19:37;18.52;;;9.55;;
67108;SDS011;54027;50.786;7.058;2023-03-01T01:22:02;20.80;;;10.38;;
67108;SDS011;54027;50.786;7.058;2023-03-01T01:24:28;18.20;;;10.25;;
67108;SDS011;54027;50.786;7.058;2023-03-01T01:26:54;18.52;;;10.52;;
67108;SDS011;54027;50.786;7.058;2023-03-01T01:29:19;16.27;;;10.48;;
67108;SDS011;54027;50.786;7.058;2023-03-01T01:31:44;21.63;;;11.20;;
67108;SDS011;54027;50.786;7.058;2023-03-01T01:34:14;15.20;;;9.82;;
67108;SDS011;54027;50.786;7.058;2023-03-01T01:36:41;22.23;;;11.23;;
67108;SDS011;54027;50.786;7.058;2023-03-01T01:39:07;17.95;;;10.52;;
67108;SDS011;54027;50.786;7.058;2023-03-01T01:41:36;18.25;;;10.23;;
67108;SDS011;54027;50.786;7.058;2023-03-01T01:44:35;22.02;;;11.27;;
67108;SDS011;54027;50.786;7.058;2023-03-01T01:46:58;24.00;;;10.60;;
67108;SDS011;54027;50.786;7.058;2023-03-01T01:52:11;17.27;;;10.07;;
67108;SDS011;54027;50.786;7.058;2023-03-01T01:54:49;17.58;;;9.50;;
67108;SDS011;54027;50.786;7.058;2023-03-01T01:57:29;16.67;;;8.88;;
67108;SDS011;54027;50.786;7.058;2023-03-01T02:00:04;17.02;;;9.38;;
67108;SDS011;54027;50.786;7.058;2023-03-01T02:02:32;17.30;;;8.90;;
67108;SDS011;54027;50.786;7.058;2023-03-01T02:05:01;15.60;;;9.48;;
67108;SDS011;54027;50.786;7.058;2023-03-01T02:07:36;17.20;;;9.05;;
67108;SDS011;54027;50.786;7.058;2023-03-01T02:10:04;18.33;;;9.65;;
67108;SDS011;54027;50.786;7.058;2023-03-01T02:12:31;20.48;;;11.00;;
67108;SDS011;54027;50.786;7.058;2023-03-01T02:14:57;19.95;;;9.80;;
67108;SDS011;54027;50.786;7.058;2023-03-01T02:17:23;17.67;;;10.27;;
67108;SDS011;54027;50.786;7.058;2023-03-01T02:22:36;19.70;;;11.00;;
67108;SDS011;54027;50.786;7.058;2023-03-01T02:27:56;19.13;;;11.07;;
67108;SDS011;54027;50.786;7.058;2023-03-01T02:30:33;17.70;;;10.25;;
67108;SDS011;54027;50.786;7.058;2023-03-01T02:32:58;19.10;;;9.75;;
67108;SDS011;54027;50.786;7.058;2023-03-01T02:35:31;20.23;;;10.40;;
67108;SDS011;54027;50.786;7.058;2023-03-01T02:38:00;20.10;;;10.52;;
67108;SDS011;54027;50.786;7.058;2023-03-01T02:40:27;20.38;;;10.50;;
67108;SDS011;54027;50.786;7.058;2023-03-01T02:42:56;16.52;;;10.07;;
67108;SDS011;54027;50.786;7.058;2023-03-01T02:45:23;24.10;;;11.40;;
67108;SDS011;54027;50.786;7.058;2023-03-01T02:47:49;19.20;;;10.02;;
67108;SDS011;54027;50.786;7.058;2023-03-01T02:55:47;17.23;;;9.40;;
67108;SDS011;54027;50.786;7.058;2023-03-01T02:58:13;21.33;;;10.13;;
67108;SDS011;54027;50.786;7.058;2023-03-01T03:00:40;19.50;;;10.25;;
67108;SDS011;54027;50.786;7.058;2023-03-01T03:03:10;20.10;;;10.27;;
67108;SDS011;54027;50.786;7.058;2023-03-01T03:05:41;15.63;;;10.10;;
67108;SDS011;54027;50.786;7.058;2023-03-01T03:08:06;20.42;;;11.48;;
67108;SDS011;54027;50.786;7.058;2023-03-01T03:10:33;18.10;;;9.85;;
67108;SDS011;54027;50.786;7.058;2023-03-01T03:13:11;17.50;;;10.30;;
67108;SDS011;54027;50.786;7.058;2023-03-01T03:15:38;16.30;;;10.45;;
67108;SDS011;54027;50.786;7.058;2023-03-01T03:18:07;18.27;;;9.75;;
67108;SDS011;54027;50.786;7.058;2023-03-01T03:20:36;18.70;;;10.23;;
67108;SDS011;54027;50.786;7.058;2023-03-01T03:23:02;19.25;;;10.35;;
67108;SDS011;54027;50.786;7.058;2023-03-01T03:25:28;21.52;;;12.43;;
67108;SDS011;54027;50.786;7.058;2023-03-01T03:27:55;20.67;;;10.38;;
67108;SDS011;54027;50.786;7.058;2023-03-01T03:30:25;18.95;;;10.23;;
67108;SDS011;54027;50.786;7.058;2023-03-01T03:32:55;17.35;;;9.73;;
67108;SDS011;54027;50.786;7.058;2023-03-01T03:35:22;15.50;;;9.57;;
67108;SDS011;54027;50.786;7.058;2023-03-01T03:37:50;20.02;;;11.38;;
67108;SDS011;54027;50.786;7.058;2023-03-01T03:40:29;20.15;;;10.30;;
67108;SDS011;54027;50.786;7.058;2023-03-01T03:43:06;19.20;;;10.02;;
67108;SDS011;54027;50.786;7.058;2023-03-01T03:45:34;20.38;;;11.35;;
67108;SDS011;54027;50.786;7.058;2023-03-01T03:48:00;18.80;;;10.77;;
67108;SDS011;54027;50.786;7.058;2023-03-01T03:50:26;18.67;;;10.70;;
67108;SDS011;54027;50.786;7.058;2023-03-01T03:52:52;17.58;;;9.75;;
67108;SDS011;54027;50.786;7.058;2023-03-01T03:55:18;25.42;;;11.77;;
67108;SDS011;54027;50.786;7.058;2023-03-01T03:57:44;19.98;;;11.25;;
67108;SDS011;54027;50.786;7.058;2023-03-01T04:00:16;22.40;;;11.45;;
67108;SDS011;54027;50.786;7.058;2023-03-01T04:02:46;18.77;;;11.30;;
67108;SDS011;54027;50.786;7.058;2023-03-01T04:05:13;18.73;;;10.18;;
67108;SDS011;54027;50.786;7.058;2023-03-01T04:07:40;19.48;;;10.18;;
67108;SDS011;54027;50.786;7.058;2023-03-01T04:10:09;22.50;;;12.60;;
67108;SDS011;54027;50.786;7.058;2023-03-01T04:12:36;16.33;;;10.13;;
67108;SDS011;54027;50.786;7.058;2023-03-01T04:15:02;22.13;;;11.40;;
67108;SDS011;54027;50.786;7.058;2023-03-01T04:17:37;21.42;;;11.65;;
67108;SDS011;54027;50.786;7.058;2023-03-01T04:20:10;19.02;;;10.35;;
67108;SDS011;54027;50.786;7.058;2023-03-01T04:22:37;17.85;;;9.73;;
67108;SDS011;54027;50.786;7.058;2023-03-01T04:25:04;23.73;;;10.77;;
67108;SDS011;54027;50.786;7.058;2023-03-01T04:27:32;18.70;;;10.63;;
67108;SDS011;54027;50.786;7.058;2023-03-01T04:29:58;21.15;;;11.13;;
67108;SDS011;54027;50.786;7.058;2023-03-01T04:32:24;20.38;;;10.15;;
67108;SDS011;54027;50.786;7.058;2023-03-01T04:34:49;19.70;;;9.95;;
67108;SDS011;54027;50.786;7.058;2023-03-01T04:37:15;16.45;;;9.70;;
67108;SDS011;54027;50.786;7.058;2023-03-01T04:39:40;23.15;;;10.35;;
67108;SDS011;54027;50.786;7.058;2023-03-01T04:42:12;21.80;;;10.32;;
67108;SDS011;54027;50.786;7.058;2023-03-01T04:44:38;23.35;;;10.55;;
67108;SDS011;54027;50.786;7.058;2023-03-01T04:47:04;22.75;;;11.48;;
67108;SDS011;54027;50.786;7.058;2023-03-01T04:49:29;20.70;;;11.23;;
67108;SDS011;54027;50.786;7.058;2023-03-01T04:51:55;24.58;;;12.73;;
67108;SDS011;54027;50.786;7.058;2023-03-01T04:54:23;23.98;;;10.93;;
67108;SDS011;54027;50.786;7.058;2023-03-01T04:56:48;20.95;;;11.43;;
67108;SDS011;54027;50.786;7.058;2023-03-01T04:59:14;18.77;;;10.27;;
67108;SDS011;54027;50.786;7.058;2023-03-01T05:01:39;18.88;;;9.93;;
67108;SDS011;54027;50.786;7.058;2023-03-01T05:04:07;20.33;;;11.50;;
67108;SDS011;54027;50.786;7.058;2023-03-01T05:06:37;20.88;;;11.88;;
67108;SDS011;54027;50.786;7.058;2023-03-01T05:09:03;22.60;;;11.20;;
67108;SDS011;54027;50.786;7.058;2023-03-01T05:11:28;26.48;;;12.98;;
67108;SDS011;54027;50.786;7.058;2023-03-01T05:13:58;24.92;;;11.35;;
67108;SDS011;54027;50.786;7.058;2023-03-01T05:16:24;27.95;;;12.18;;
67108;SDS011;54027;50.786;7.058;2023-03-01T05:18:49;20.20;;;11.35;;
67108;SDS011;54027;50.786;7.058;2023-03-01T05:21:16;21.25;;;12.48;;
67108;SDS011;54027;50.786;7.058;2023-03-01T05:23:42;26.63;;;13.15;;
67108;SDS011;54027;50.786;7.058;2023-03-01T05:26:07;20.52;;;12.45;;
67108;SDS011;54027;50.786;7.058;2023-03-01T05:28:34;22.98;;;12.70;;
67108;SDS011;54027;50.786;7.058;2023-03-01T05:31:00;24.75;;;12.20;;
67108;SDS011;54027;50.786;7.058;2023-03-01T05:33:25;20.73;;;11.63;;
67108;SDS011;54027;50.786;7.058;2023-03-01T05:35:52;22.17;;;11.95;;
67108;SDS011;54027;50.786;7.058;2023-03-01T05:38:18;27.08;;;14.38;;
67108;SDS011;54027;50.786;7.058;2023-03-01T05:40:45;17.80;;;10.35;;
67108;SDS011;54027;50.786;7.058;2023-03-01T05:43:12;20.20;;;10.80;;
67108;SDS011;54027;50.786;7.058;2023-03-01T05:45:39;26.00;;;12.98;;
67108;SDS011;54027;50.786;7.058;2023-03-01T05:48:06;25.08;;;13.70;;
67108;SDS011;54027;50.786;7.058;2023-03-01T05:50:33;31.67;;;13.27;;
67108;SDS011;54027;50.786;7.058;2023-03-01T05:53:09;21.88;;;12.30;;
67108;SDS011;54027;50.786;7.058;2023-03-01T05:55:37;22.15;;;12.40;;
67108;SDS011;54027;50.786;7.058;2023-03-01T05:58:04;22.75;;;12.63;;
67108;SDS011;54027;50.786;7.058;2023-03-01T06:00:32;24.77;;;12.75;;
67108;SDS011;54027;50.786;7.058;2023-03-01T06:02:58;23.33;;;13.05;;
67108;SDS011;54027;50.786;7.058;2023-03-01T06:05:25;18.98;;;10.35;;
67108;SDS011;54027;50.786;7.058;2023-03-01T06:07:51;20.05;;;11.55;;
67108;SDS011;54027;50.786;7.058;2023-03-01T06:10:18;23.05;;;11.35;;
67108;SDS011;54027;50.786;7.058;2023-03-01T06:12:45;26.25;;;12.32;;
67108;SDS011;54027;50.786;7.058;2023-03-01T06:15:12;21.98;;;12.30;;
67108;SDS011;54027;50.786;7.058;2023-03-01T06:17:40;20.92;;;12.10;;
67108;SDS011;54027;50.786;7.058;2023-03-01T06:20:10;22.73;;;12.05;;
67108;SDS011;54027;50.786;7.058;2023-03-01T06:22:54;19.77;;;10.88;;
67108;SDS011;54027;50.786;7.058;2023-03-01T06:25:20;24.00;;;11.98;;
67108;SDS011;54027;50.786;7.058;2023-03-01T06:27:48;23.55;;;12.10;;
67108;SDS011;54027;50.786;7.058;2023-03-01T06:30:14;32.08;;;13.75;;
67108;SDS011;54027;50.786;7.058;2023-03-01T06:32:41;23.02;;;13.85;;
67108;SDS011;54027;50.786;7.058;2023-03-01T06:35:08;25.08;;;12.02;;
67108;SDS011;54027;50.786;7.058;2023-03-01T06:37:35;22.30;;;13.23;;
67108;SDS011;54027;50.786;7.058;2023-03-01T06:40:01;33.08;;;14.43;;
67108;SDS011;54027;50.786;7.058;2023-03-01T06:42:33;23.90;;;12.65;;
67108;SDS011;54027;50.786;7.058;2023-03-01T06:45:01;27.88;;;13.15;;
67108;SDS011;54027;50.786;7.058;2023-03-01T06:47:26;24.67;;;12.23;;
67108;SDS011;54027;50.786;7.058;2023-03-01T06:49:52;24.83;;;12.20;;
67108;SDS011;54027;50.786;7.058;2023-03-01T06:52:17;27.27;;;11.85;;
67108;SDS011;54027;50.786;7.058;2023-03-01T06:54:43;28.00;;;14.30;;
67108;SDS011;54027;50.786;7.058;2023-03-01T06:57:08;23.92;;;12.60;;
67108;SDS011;54027;50.786;7.058;2023-03-01T06:59:34;34.90;;;14.05;;
67108;SDS011;54027;50.786;7.058;2023-03-01T07:01:59;26.60;;;14.02;;
67108;SDS011;54027;50.786;7.058;2023-03-01T07:04:24;22.75;;;12.93;;
67108;SDS011;54027;50.786;7.058;2023-03-01T07:06:50;24.40;;;11.77;;
67108;SDS011;54027;50.786;7.058;2023-03-01T07:09:20;24.55;;;12.52;;
67108;SDS011;54027;50.786;7.058;2023-03-01T07:11:48;21.75;;;11.98;;
67108;SDS011;54027;50.786;7.058;2023-03-01T07:14:17;23.85;;;12.65;;
67108;SDS011;54027;50.786;7.058;2023-03-01T07:16:44;24.05;;;12.57;;
67108;SDS011;54027;50.786;7.058;2023-03-01T07:19:10;21.02;;;11.27;;
67108;SDS011;54027;50.786;7.058;2023-03-01T07:21:35;23.33;;;11.85;;
67108;SDS011;54027;50.786;7.058;2023-03-01T07:24:03;21.45;;;11.52;;
67108;SDS011;54027;50.786;7.058;2023-03-01T07:26:30;24.27;;;12.27;;
67108;SDS011;54027;50.786;7.058;2023-03-01T07:28:58;27.38;;;12.73;;
67108;SDS011;54027;50.786;7.058;2023-03-01T07:31:24;18.48;;;11.23;;
67108;SDS011;54027;50.786;7.058;2023-03-01T07:33:50;23.17;;;11.80;;
67108;SDS011;54027;50.786;7.058;2023-03-01T07:36:15;24.55;;;12.88;;
67108;SDS011;54027;50.786;7.058;2023-03-01T07:38:40;20.90;;;12.05;;
67108;SDS011;54027;50.786;7.058;2023-03-01T07:41:06;23.42;;;11.38;;
67108;SDS011;54027;50.786;7.058;2023-03-01T07:43:31;27.92;;;11.77;;
67108;SDS011;54027;50.786;7.058;2023-03-01T07:46:00;22.17;;;10.80;;
67108;SDS011;54027;50.786;7.058;2023-03-01T07:48:26;26.02;;;11.32;;
67108;SDS011;54027;50.786;7.058;2023-03-01T07:50:52;32.60;;;14.13;;
67108;SDS011;54027;50.786;7.058;2023-03-01T07:53:18;28.83;;;12.68;;
67108;SDS011;54027;50.786;7.058;2023-03-01T07:55:43;22.20;;;10.85;;
67108;SDS011;54027;50.786;7.058;2023-03-01T07:58:08;24.33;;;12.27;;
67108;SDS011;54027;50.786;7.058;2023-03-01T08:00:34;20.95;;;11.23;;
67108;SDS011;54027;50.786;7.058;2023-03-01T08:03:00;21.13;;;11.48;;
67108;SDS011;54027;50.786;7.058;2023-03-01T08:05:26;22.27;;;11.82;;
67108;SDS011;54027;50.786;7.058;2023-03-01T08:07:52;20.80;;;11.07;;
67108;SDS011;54027;50.786;7.058;2023-03-01T08:10:17;21.63;;;13.15;;
67108;SDS011;54027;50.786;7.058;2023-03-01T08:12:43;20.27;;;12.43;;
67108;SDS011;54027;50.786;7.058;2023-03-01T08:15:08;26.77;;;13.80;;
67108;SDS011;54027;50.786;7.058;2023-03-01T08:17:34;23.50;;;11.70;;
67108;SDS011;54027;50.786;7.058;2023-03-01T08:20:00;17.67;;;11.43;;
67108;SDS011;54027;50.786;7.058;2023-03-01T08:22:25;22.92;;;13.18;;
67108;SDS011;54027;50.786;7.058;2023-03-01T08:24:50;25.50;;;13.10;;
67108;SDS011;54027;50.786;7.058;2023-03-01T08:27:16;23.98;;;13.65;;
67108;SDS011;54027;50.786;7.058;2023-03-01T08:29:42;23.60;;;12.65;;
67108;SDS011;54027;50.786;7.058;2023-03-01T08:32:07;20.63;;;11.35;;
67108;SDS011;54027;50.786;7.058;2023-03-01T08:34:33;22.10;;;13.00;;
67108;SDS011;54027;50.786;7.058;2023-03-01T08:37:00;24.27;;;14.18;;
67108;SDS011;54027;50.786;7.058;2023-03-01T08:39:26;27.42;;;14.35;;
67108;SDS011;54027;50.786;7.058;2023-03-01T08:41:52;20.55;;;12.15;;
67108;SDS011;54027;50.786;7.058;2023-03-01T08:44:17;22.48;;;12.90;;
67108;SDS011;54027;50.786;7.058;2023-03-01T08:46:43;22.65;;;12.80;;
67108;SDS011;54027;50.786;7.058;2023-03-01T08:49:14;23.27;;;13.38;;
67108;SDS011;54027;50.786;7.058;2023-03-01T08:51:41;24.15;;;12.82;;
67108;SDS011;54027;50.786;7.058;2023-03-01T08:54:26;28.42;;;13.45;;
67108;SDS011;54027;50.786;7.058;2023-03-01T08:56:51;26.35;;;13.60;;
67108;SDS011;54027;50.786;7.058;2023-03-01T08:59:17;29.75;;;13.48;;
67108;SDS011;54027;50.786;7.058;2023-03-01T09:01:43;25.17;;;13.65;;
67108;SDS011;54027;50.786;7.058;2023-03-01T09:04:09;29.27;;;13.00;;
67108;SDS011;54027;50.786;7.058;2023-03-01T09:06:35;25.70;;;12.35;;
67108;SDS011;54027;50.786;7.058;2023-03-01T09:09:00;27.30;;;12.95;;
67108;SDS011;54027;50.786;7.058;2023-03-01T09:11:28;20.42;;;12.13;;
67108;SDS011;54027;50.786;7.058;2023-03-01T09:13:53;29.88;;;13.93;;
67108;SDS011;54027;50.786;7.058;2023-03-01T09:16:19;24.65;;;12.85;;
67108;SDS011;54027;50.786;7.058;2023-03-01T09:18:50;26.73;;;14.40;;
67108;SDS011;54027;50.786;7.058;2023-03-01T09:21:17;25.55;;;14.38;;
67108;SDS011;54027;50.786;7.058;2023-03-01T09:23:44;27.20;;;14.45;;
67108;SDS011;54027;50.786;7.058;2023-03-01T09:26:13;26.00;;;13.75;;
67108;SDS011;54027;50.786;7.058;2023-03-01T09:28:41;24.92;;;14.00;;
67108;SDS011;54027;50.786;7.058;2023-03-01T09:31:07;25.27;;;14.32;;
67108;SDS011;54027;50.786;7.058;2023-03-01T09:33:33;29.85;;;14.95;;
67108;SDS011;54027;50.786;7.058;2023-03-01T09:35:59;23.48;;;13.93;;
67108;SDS011;54027;50.786;7.058;2023-03-01T09:38:27;26.80;;;14.15;;
67108;SDS011;54027;50.786;7.058;2023-03-01T09:40:53;28.52;;;13.90;;
67108;SDS011;54027;50.786;7.058;2023-03-01T09:43:21;26.45;;;14.15;;
67108;SDS011;54027;50.786;7.058;2023-03-01T09:45:54;24.55;;;14.00;;
67108;SDS011;54027;50.786;7.058;2023-03-01T09:48:24;32.80;;;15.57;;
67108;SDS011;54027;50.786;7.058;2023-03-01T09:50:52;25.75;;;14.60;;
67108;SDS011;54027;50.786;7.058;2023-03-01T09:53:20;29.35;;;14.23;;
67108;SDS011;54027;50.786;7.058;2023-03-01T10:01:27;25.23;;;13.90;;
67108;SDS011;54027;50.786;7.058;2023-03-01T10:06:38;28.38;;;14.38;;
67108;SDS011;54027;50.786;7.058;2023-03-01T10:09:13;23.55;;;14.55;;
67108;SDS011;54027;50.786;7.058;2023-03-01T10:11:41;25.67;;;14.73;;
67108;SDS011;54027;50.786;7.058;2023-03-01T10:17:23;26.58;;;13.32;;
67108;SDS011;54027;50.786;7.058;2023-03-01T10:20:25;26.70;;;14.13;;
67108;SDS011;54027;50.786;7.058;2023-03-01T10:22:54;24.65;;;13.77;;
67108;SDS011;54027;50.786;7.058;2023-03-01T10:25:44;23.02;;;14.82;;
67108;SDS011;54027;50.786;7.058;2023-03-01T10:28:10;29.45;;;13.93;;
67108;SDS011;54027;50.786;7.058;2023-03-01T10:30:59;21.23;;;12.32;;
67108;SDS011;54027;50.786;7.058;2023-03-01T10:33:26;24.33;;;12.45;;
67108;SDS011;54027;50.786;7.058;2023-03-01T10:35:54;18.65;;;11.30;;
67108;SDS011;54027;50.786;7.058;2023-03-01T10:38:20;21.30;;;12.50;;
67108;SDS011;54027;50.786;7.058;2023-03-01T10:40:53;19.70;;;11.32;;
67108;SDS011;54027;50.786;7.058;2023-03-01T10:43:22;18.10;;;11.40;;
67108;SDS011;54027;50.786;7.058;2023-03-01T10:45:51;18.33;;;12.15;;
67108;SDS011;54027;50.786;7.058;2023-03-01T10:48:22;17.23;;;10.90;;
67108;SDS011;54027;50.786;7.058;2023-03-01T10:51:04;20.15;;;11.52;;
67108;SDS011;54027;50.786;7.058;2023-03-01T10:53:32;23.45;;;11.20;;
67108;SDS011;54027;50.786;7.058;2023-03-01T10:56:19;19.92;;;10.85;;
67108;SDS011;54027;50.786;7.058;2023-03-01T10:58:58;19.60;;;11.50;;
67108;SDS011;54027;50.786;7.058;2023-03-01T11:01:35;20.13;;;10.52;;
67108;SDS011;54027;50.786;7.058;2023-03-01T11:04:09;15.90;;;9.70;;
67108;SDS011;54027;50.786;7.058;2023-03-01T11:06:38;18.42;;;10.35;;
67108;SDS011;54027;50.786;7.058;2023-03-01T11:09:21;17.00;;;9.88;;
67108;SDS011;54027;50.786;7.058;2023-03-01T11:11:54;17.75;;;9.93;;
67108;SDS011;54027;50.786;7.058;2023-03-01T11:14:22;13.10;;;8.80;;
67108;SDS011;54027;50.786;7.058;2023-03-01T11:17:05;16.50;;;9.30;;
67108;SDS011;54027;50.786;7.058;2023-03-01T11:19:37;14.98;;;9.10;;
67108;SDS011;54027;50.786;7.058;2023-03-01T11:22:19;15.18;;;9.20;;
67108;SDS011;54027;50.786;7.058;2023-03-01T11:24:47;15.02;;;8.63;;
67108;SDS011;54027;50.786;7.058;2023-03-01T11:29:51;15.55;;;8.88;;
67108;SDS011;54027;50.786;7.058;2023-03-01T11:32:22;13.23;;;8.80;;
67108;SDS011;54027;50.786;7.058;2023-03-01T11:43:19;19.02;;;8.77;;
67108;SDS011;54027;50.786;7.058;2023-03-01T11:49:19;16.60;;;10.20;;
67108;SDS011;54027;50.786;7.058;2023-03-01T11:51:43;16.40;;;10.03;;
67108;SDS011;54027;50.786;7.058;2023-03-01T12:06:04;17.45;;;9.55;;
67108;SDS011;54027;50.786;7.058;2023-03-01T12:09:00;16.27;;;9.55;;
67108;SDS011;54027;50.786;7.058;2023-03-01T12:17:02;15.68;;;8.77;;
67108;SDS011;54027;50.786;7.058;2023-03-01T12:25:32;14.77;;;8.57;;
67108;SDS011;54027;50.786;7.058;2023-03-01T12:33:24;15.15;;;8.70;;
67108;SDS011;54027;50.786;7.058;2023-03-01T12:38:50;12.88;;;8.00;;
67108;SDS011;54027;50.786;7.058;2023-03-01T12:50:59;13.48;;;8.52;;
67108;SDS011;54027;50.786;7.058;2023-03-01T12:53:19;14.65;;;9.15;;
67108;SDS011;54027;50.786;7.058;2023-03-01T12:55:45;15.45;;;9.18;;
67108;SDS011;54027;50.786;7.058;2023-03-01T13:11:41;13.80;;;8.85;;
67108;SDS011;54027;50.786;7.058;2023-03-01T13:16:45;12.45;;;8.48;;
67108;SDS011;54027;50.786;7.058;2023-03-01T13:21:46;11.15;;;7.18;;
67108;SDS011;54027;50.786;7.058;2023-03-01T13:29:30;12.18;;;6.57;;
67108;SDS011;54027;50.786;7.058;2023-03-01T13:32:28;12.77;;;7.22;;
67108;SDS011;54027;50.786;7.058;2023-03-01T13:34:59;12.18;;;7.70;;
67108;SDS011;54027;50.786;7.058;2023-03-01T13:37:48;16.70;;;8.18;;
67108;SDS011;54027;50.786;7.058;2023-03-01T13:42:45;11.23;;;6.40;;
67108;SDS011;54027;50.786;7.058;2023-03-01T13:48:03;15.52;;;7.60;;
67108;SDS011;54027;50.786;7.058;2023-03-01T13:50:36;11.70;;;6.63;;
67108;SDS011;54027;50.786;7.058;2023-03-01T13:53:09;12.10;;;7.20;;
67108;SDS011;54027;50.786;7.058;2023-03-01T13:55:42;11.25;;;7.45;;
67108;SDS011;54027;50.786;7.058;2023-03-01T13:58:19;11.68;;;7.40;;
67108;SDS011;54027;50.786;7.058;2023-03-01T14:00:55;12.32;;;6.78;;
67108;SDS011;54027;50.786;7.058;2023-03-01T14:03:25;12.07;;;6.97;;
67108;SDS011;54027;50.786;7.058;2023-03-01T14:06:05;10.85;;;6.22;;
67108;SDS011;54027;50.786;7.058;2023-03-01T14:08:32;12.27;;;6.90;;
67108;SDS011;54027;50.786;7.058;2023-03-01T14:19:21;11.93;;;7.03;;
67108;SDS011;54027;50.786;7.058;2023-03-01T14:24:28;14.57;;;6.78;;
67108;SDS011;54027;50.786;7.058;2023-03-01T14:26:57;11.15;;;7.05;;
67108;SDS011;54027;50.786;7.058;2023-03-01T14:29:24;9.65;;;6.88;;
67108;SDS011;54027;50.786;7.058;2023-03-01T14:31:50;12.82;;;7.50;;
67108;SDS011;54027;50.786;7.058;2023-03-01T14:34:20;13.20;;;6.88;;
67108;SDS011;54027;50.786;7.058;2023-03-01T14:36:48;11.93;;;6.63;;
67108;SDS011;54027;50.786;7.058;2023-03-01T14:39:17;13.35;;;7.45;;
67108;SDS011;54027;50.786;7.058;2023-03-01T14:41:49;19.48;;;9.65;;
67108;SDS011;54027;50.786;7.058;2023-03-01T14:44:17;15.10;;;7.88;;
67108;SDS011;54027;50.786;7.058;2023-03-01T14:46:51;11.02;;;7.57;;
67108;SDS011;54027;50.786;7.058;2023-03-01T14:49:19;13.65;;;8.23;;
67108;SDS011;54027;50.786;7.058;2023-03-01T14:51:50;11.05;;;7.63;;
67108;SDS011;54027;50.786;7.058;2023-03-01T14:54:26;17.05;;;9.05;;
67108;SDS011;54027;50.786;7.058;2023-03-01T14:57:00;12.40;;;7.78;;
67108;SDS011;54027;50.786;7.058;2023-03-01T14:59:26;13.45;;;8.35;;
67108;SDS011;54027;50.786;7.058;2023-03-01T15:01:51;23.83;;;13.20;;
67108;SDS011;54027;50.786;7.058;2023-03-01T15:04:20;15.65;;;9.77;;
67108;SDS011;54027;50.786;7.058;2023-03-01T15:06:50;10.98;;;7.82;;
67108;SDS011;54027;50.786;7.058;2023-03-01T15:09:17;10.93;;;7.55;;
67108;SDS011;54027;50.786;7.058;2023-03-01T15:11:44;11.95;;;6.82;;
67108;SDS011;54027;50.786;7.058;2023-03-01T15:17:05;10.70;;;7.45;;
67108;SDS011;54027;50.786;7.058;2023-03-01T15:19:57;9.55;;;6.45;;
67108;SDS011;54027;50.786;7.058;2023-03-01T15:22:24;10.38;;;6.32;;
67108;SDS011;54027;50.786;7.058;2023-03-01T15:24:52;8.80;;;6.18;;
67108;SDS011;54027;50.786;7.058;2023-03-01T15:27:19;15.20;;;8.30;;
67108;SDS011;54027;50.786;7.058;2023-03-01T15:29:50;9.43;;;6.18;;
67108;SDS011;54027;50.786;7.058;2023-03-01T15:32:30;9.55;;;6.38;;
67108;SDS011;54027;50.786;7.058;2023-03-01T15:34:58;11.43;;;6.38;;
67108;SDS011;54027;50.786;7.058;2023-03-01T15:37:47;10.32;;;6.07;;
67108;SDS011;54027;50.786;7.058;2023-03-01T15:40:26;9.70;;;5.95;;
67108;SDS011;54027;50.786;7.058;2023-03-01T15:43:02;14.50;;;6.10;;
67108;SDS011;54027;50.786;7.058;2023-03-01T15:45:30;11.77;;;6.90;;
67108;SDS011;54027;50.786;7.058;2023-03-01T15:48:02;12.82;;;6.85;;
67108;SDS011;54027;50.786;7.058;2023-03-01T15:50:34;9.77;;;6.50;;
67108;SDS011;54027;50.786;7.058;2023-03-01T15:53:01;11.88;;;7.45;;
67108;SDS011;54027;50.786;7.058;2023-03-01T15:55:33;10.35;;;6.50;;
67108;SDS011;54027;50.786;7.058;2023-03-01T15:57:59;11.70;;;6.63;;
67108;SDS011;54027;50.786;7.058;2023-03-01T16:00:28;14.27;;;8.02;;
67108;SDS011;54027;50.786;7.058;2023-03-01T16:02:54;14.65;;;7.47;;
67108;SDS011;54027;50.786;7.058;2023-03-01T16:05:21;13.18;;;7.07;;
67108;SDS011;54027;50.786;7.058;2023-03-01T16:07:48;16.20;;;10.52;;
67108;SDS011;54027;50.786;7.058;2023-03-01T16:10:14;14.90;;;8.77;;
67108;SDS011;54027;50.786;7.058;2023-03-01T16:12:40;14.70;;;8.48;;
67108;SDS011;54027;50.786;7.058;2023-03-01T16:15:27;10.48;;;7.53;;
67108;SDS011;54027;50.786;7.058;2023-03-01T16:17:55;23.00;;;12.52;;
67108;SDS011;54027;50.786;7.058;2023-03-01T16:20:23;16.42;;;9.40;;
67108;SDS011;54027;50.786;7.058;2023-03-01T16:22:49;13.80;;;8.15;;
67108;SDS011;54027;50.786;7.058;2023-03-01T16:25:16;15.15;;;8.20;;
67108;SDS011;54027;50.786;7.058;2023-03-01T16:27:44;22.90;;;12.55;;
67108;SDS011;54027;50.786;7.058;2023-03-01T16:30:12;16.88;;;8.52;;
67108;SDS011;54027;50.786;7.058;2023-03-01T16:32:39;15.15;;;8.30;;
67108;SDS011;54027;50.786;7.058;2023-03-01T16:35:05;17.45;;;10.52;;
67108;SDS011;54027;50.786;7.058;2023-03-01T16:37:32;27.25;;;12.88;;
67108;SDS011;54027;50.786;7.058;2023-03-01T16:39:59;23.52;;;11.98;;